Time;durP1;ratioP1;P1;durP2;ratioP2;P2;SDS_P1;SDS_P2;PMS_P1;PMS_P2;Temp;Humidity;BMP_temperature;BMP_pressure;BME280_temperature;BME280_humidity;BME280_pressure;Samples;Min_cycle;Max_cycle;Signal;HPM_P1;HPM_P2
2024/03/22 00:00:30;;;;;;;18.80;9.73;;;;;;;4.19;100.00;96913.91;1018570;29;20028;-69
2024/03/22 00:01:00;;;;;;;20.90;11.98;;;;;;;4.23;100.00;96903.94;1023009;29;20031;-69
2024/03/22 00:01:31;;;;;;;18.95;12.00;;;;;;;4.20;100.00;96901.72;1026739;28;20057;-69
2024/03/22 00:02:01;;;;;;;20.23;12.68;;;;;;;4.21;100.00;96905.91;1022593;29;20011;-68
2024/03/22 00:02:32;;;;;;;23.02;12.23;;;;;;;4.19;100.00;96911.31;1026878;28;20486;-70
2024/03/22 00:03:03;;;;;;;20.48;12.32;;;;;;;4.19;100.00;96908.72;1022777;29;20015;-70
2024/03/22 00:03:33;;;;;;;22.40;12.15;;;;;;;4.19;100.00;96913.09;1023410;29;20019;-70
2024/03/22 00:04:04;;;;;;;22.67;13.27;;;;;;;4.17;100.00;96909.91;1024279;28;20055;-69
2024/03/22 00:04:35;;;;;;;19.23;12.93;;;;;;;4.15;100.00;96914.47;1031625;28;20022;-69
2024/03/22 00:05:05;;;;;;;22.23;12.93;;;;;;;4.16;100.00;96905.69;1027939;28;20078;-69
2024/03/22 00:05:36;;;;;;;23.88;12.35;;;;;;;4.13;100.00;96906.09;1026470;28;20967;-69
2024/03/22 00:06:06;;;;;;;20.75;13.23;;;;;;;4.16;100.00;96908.31;1019848;29;20076;-69
2024/03/22 00:06:37;;;;;;;23.77;12.50;;;;;;;4.14;100.00;96916.28;1022997;29;20102;-69
2024/03/22 00:07:07;;;;;;;22.63;12.63;;;;;;;4.13;100.00;96913.88;1026766;28;20057;-68
2024/03/22 00:07:38;;;;;;;19.73;12.77;;;;;;;4.12;100.00;96914.84;1030686;28;20054;-68
2024/03/22 00:08:09;;;;;;;20.45;12.43;;;;;;;4.10;100.00;96914.25;1030959;28;20105;-69
2024/03/22 00:08:39;;;;;;;22.73;12.15;;;;;;;4.11;100.00;96910.66;1018019;29;20106;-69
2024/03/22 00:09:10;;;;;;;19.67;12.38;;;;;;;4.04;100.00;96902.84;1023154;29;20077;-69
2024/03/22 00:09:41;;;;;;;19.60;12.43;;;;;;;4.07;100.00;96910.25;1022719;29;20023;-69
2024/03/22 00:10:11;;;;;;;20.00;12.93;;;;;;;4.10;100.00;96911.66;1018738;29;20027;-68
2024/03/22 00:10:42;;;;;;;22.27;12.63;;;;;;;4.07;100.00;96909.44;1025723;28;20075;-68
2024/03/22 00:11:12;;;;;;;20.95;12.18;;;;;;;4.16;100.00;96910.91;1022912;29;20437;-69
2024/03/22 00:11:43;;;;;;;17.95;11.57;;;;;;;4.17;100.00;96912.50;1022757;29;20031;-68
2024/03/22 00:12:13;;;;;;;20.50;11.02;;;;;;;4.23;100.00;96912.53;1030833;28;20025;-70
2024/03/22 00:12:44;;;;;;;16.52;10.02;;;;;;;4.30;100.00;96914.34;1022726;29;20485;-69
2024/03/22 00:13:18;;;;;;;18.15;11.00;;;;;;;4.36;100.00;96916.97;1026866;28;20031;-68
2024/03/22 00:13:48;;;;;;;17.85;9.50;;;;;;;4.42;100.00;96923.97;1030649;28;20312;-68
2024/03/22 00:14:19;;;;;;;17.13;10.63;;;;;;;4.61;100.00;96927.66;1022892;28;20495;-68
2024/03/22 00:14:51;;;;;;;20.48;10.38;;;;;;;4.67;100.00;96926.09;1018872;29;20059;-69
2024/03/22 00:15:22;;;;;;;18.55;10.57;;;;;;;4.71;100.00;96924.69;1026819;28;20026;-68
2024/03/22 00:15:52;;;;;;;20.52;11.20;;;;;;;4.81;100.00;96930.31;1029957;28;20300;-68
2024/03/22 00:16:23;;;;;;;24.95;12.90;;;;;;;4.88;100.00;96925.13;1026949;28;20720;-69
2024/03/22 00:16:53;;;;;;;22.52;12.40;;;;;;;4.87;100.00;96926.94;1018749;29;20032;-68
2024/03/22 00:17:24;;;;;;;22.17;11.73;;;;;;;4.95;100.00;96933.75;1028709;28;20508;-69
2024/03/22 00:17:54;;;;;;;19.73;12.52;;;;;;;4.95;100.00;96934.53;1022571;29;20023;-68
2024/03/22 00:18:25;;;;;;;21.52;12.02;;;;;;;4.94;100.00;96929.56;1026131;28;20556;-68
2024/03/22 00:18:56;;;;;;;23.60;12.80;;;;;;;5.03;100.00;96930.16;1022086;28;20133;-68
2024/03/22 00:19:26;;;;;;;20.08;12.57;;;;;;;5.05;100.00;96928.16;1026462;28;20131;-68
2024/03/22 00:19:57;;;;;;;21.80;12.13;;;;;;;5.07;100.00;96926.19;1022441;29;20270;-69
2024/03/22 00:20:27;;;;;;;23.70;11.98;;;;;;;5.05;100.00;96928.97;1022635;29;20507;-68
2024/03/22 00:20:58;;;;;;;22.05;12.45;;;;;;;5.08;100.00;96931.16;1030123;28;20026;-69
2024/03/22 00:21:29;;;;;;;22.58;11.60;;;;;;;5.09;100.00;96931.97;1026619;28;20527;-67
2024/03/22 00:21:59;;;;;;;21.00;12.63;;;;;;;5.05;100.00;96922.97;1022423;29;20019;-68
2024/03/22 00:22:30;;;;;;;20.50;12.52;;;;;;;5.08;100.00;96932.97;1022484;29;20262;-68
2024/03/22 00:23:00;;;;;;;21.27;12.93;;;;;;;5.08;100.00;96930.38;1027012;28;20051;-69
2024/03/22 00:23:31;;;;;;;26.52;14.27;;;;;;;5.07;100.00;96933.97;1026656;28;20420;-68
2024/03/22 00:24:01;;;;;;;21.40;12.77;;;;;;;5.09;100.00;96927.56;1027418;28;20041;-70
2024/03/22 00:24:32;;;;;;;22.92;13.13;;;;;;;5.10;100.00;96929.19;1030813;28;20414;-69
2024/03/22 00:25:03;;;;;;;22.42;13.50;;;;;;;5.13;100.00;96935.78;1030624;28;20019;-69
2024/03/22 00:25:34;;;;;;;25.20;13.50;;;;;;;5.13;100.00;96920.16;1030774;28;20018;-68
2024/03/22 00:26:04;;;;;;;20.55;13.07;;;;;;;5.18;100.00;96928.19;1030644;28;21091;-68
2024/03/22 00:26:35;;;;;;;27.27;14.50;;;;;;;5.22;100.00;96924.19;1026740;28;20451;-68
2024/03/22 00:27:05;;;;;;;24.30;13.63;;;;;;;5.25;100.00;96933.41;1030985;28;20422;-68
2024/03/22 00:27:36;;;;;;;24.48;13.77;;;;;;;5.20;100.00;96923.59;1022541;29;20023;-69
2024/03/22 00:28:06;;;;;;;24.35;14.05;;;;;;;5.21;100.00;96927.78;1026887;28;20059;-69
2024/03/22 00:28:37;;;;;;;25.35;14.90;;;;;;;5.22;100.00;96934.59;1029504;28;20022;-68
2024/03/22 00:29:08;;;;;;;22.45;13.98;;;;;;;5.21;100.00;96919.97;1018713;29;20030;-69
2024/03/22 00:29:41;;;;;;;25.20;15.13;;;;;;;5.20;100.00;96924.38;1022744;29;20367;-69
2024/03/22 00:30:12;;;;;;;28.30;15.75;;;;;;;5.26;100.00;96924.59;1022638;28;20481;-69
2024/03/22 00:30:42;;;;;;;30.45;16.27;;;;;;;5.25;100.00;96923.78;1026630;28;20081;-68
2024/03/22 00:31:13;;;;;;;24.70;15.52;;;;;;;5.27;100.00;96927.00;1026755;28;20059;-69
2024/03/22 00:31:43;;;;;;;24.98;14.63;;;;;;;5.27;100.00;96926.19;1034589;28;20022;-70
2024/03/22 00:32:14;;;;;;;31.83;14.80;;;;;;;5.23;100.00;96920.59;1030613;28;20482;-69
2024/03/22 00:32:44;;;;;;;26.42;15.20;;;;;;;5.26;100.00;96920.16;1030513;28;20037;-68
2024/03/22 00:33:15;;;;;;;26.88;15.45;;;;;;;5.26;100.00;96920.16;1030567;28;20130;-68
2024/03/22 00:33:45;;;;;;;28.63;16.50;;;;;;;5.28;100.00;96926.00;1022892;29;20440;-69
2024/03/22 00:34:16;;;;;;;30.10;15.70;;;;;;;5.28;100.00;96925.19;1034493;28;20120;-69
2024/03/22 00:34:46;;;;;;;29.65;16.40;;;;;;;5.28;100.00;96920.00;1026610;28;20065;-69
2024/03/22 00:35:17;;;;;;;29.48;16.05;;;;;;;5.32;100.00;96916.78;1030849;28;20101;-69
2024/03/22 00:35:47;;;;;;;25.23;15.25;;;;;;;5.34;100.00;96914.78;1030603;28;20050;-68
2024/03/22 00:36:18;;;;;;;27.98;15.25;;;;;;;5.36;100.00;96914.56;1026674;28;20034;-69
2024/03/22 00:36:49;;;;;;;29.20;15.73;;;;;;;5.36;100.00;96909.38;1035048;28;20026;-69
2024/03/22 00:37:19;;;;;;;28.75;15.68;;;;;;;5.38;100.00;96908.19;1026633;28;20094;-70
2024/03/22 00:37:50;;;;;;;29.50;16.83;;;;;;;5.41;100.00;96906.97;1026581;28;20054;-69
2024/03/22 00:38:20;;;;;;;29.75;16.20;;;;;;;5.41;100.00;96907.78;1033195;28;20661;-68
2024/03/22 00:38:50;;;;;;;28.23;15.38;;;;;;;5.42;100.00;96913.78;1030766;28;20457;-68
2024/03/22 00:39:21;;;;;;;31.48;15.18;;;;;;;5.40;100.00;96908.00;1030675;28;20061;-69
2024/03/22 00:39:51;;;;;;;28.38;16.55;;;;;;;5.40;100.00;96911.38;1034517;28;20333;-68
2024/03/22 00:40:22;;;;;;;29.75;15.85;;;;;;;5.41;100.00;96912.97;1030598;28;20034;-69
2024/03/22 00:40:52;;;;;;;29.80;16.88;;;;;;;5.40;100.00;96911.38;1018893;29;20070;-68
2024/03/22 00:41:23;;;;;;;27.38;16.33;;;;;;;5.38;100.00;96921.19;1030442;28;20026;-68
2024/03/22 00:41:53;;;;;;;26.88;15.93;;;;;;;5.37;100.00;96916.19;1030463;28;20026;-68
2024/03/22 00:42:24;;;;;;;31.10;17.52;;;;;;;5.36;100.00;96917.97;1022415;29;20035;-69
2024/03/22 00:42:54;;;;;;;28.85;16.27;;;;;;;5.34;100.00;96922.59;1030629;28;20032;-69
2024/03/22 00:43:25;;;;;;;30.92;15.90;;;;;;;5.33;100.00;96910.59;1035184;28;20527;-70
2024/03/22 00:43:56;;;;;;;27.77;16.02;;;;;;;5.32;100.00;96914.19;1026607;28;20077;-70
2024/03/22 00:44:27;;;;;;;29.52;15.75;;;;;;;5.30;100.00;96918.78;1031466;28;20389;-69
2024/03/22 00:44:58;;;;;;;25.58;15.70;;;;;;;5.24;100.00;96910.97;1022881;29;20027;-69
2024/03/22 00:45:28;;;;;;;25.98;16.00;;;;;;;5.28;100.00;96922.59;1030556;28;20031;-69
2024/03/22 00:46:00;;;;;;;27.40;16.25;;;;;;;5.26;100.00;96920.16;1026850;28;20034;-69
2024/03/22 00:46:31;;;;;;;30.23;16.58;;;;;;;5.21;100.00;96917.38;1022223;29;20082;-69
2024/03/22 00:47:03;;;;;;;29.15;15.85;;;;;;;5.22;100.00;96918.97;1030615;28;20284;-69
2024/03/22 00:47:33;;;;;;;26.55;15.80;;;;;;;5.20;100.00;96921.00;1030750;28;20046;-69
2024/03/22 00:48:04;;;;;;;28.40;15.23;;;;;;;5.19;100.00;96917.56;1022312;29;20346;-69
2024/03/22 00:48:35;;;;;;;30.10;16.08;;;;;;;5.19;100.00;96916.75;1022098;29;20041;-68
2024/03/22 00:49:06;;;;;;;28.88;16.27;;;;;;;5.17;100.00;96916.97;1030879;28;20117;-70
2024/03/22 00:49:36;;;;;;;30.75;16.75;;;;;;;5.18;100.00;96913.38;1026622;28;20123;-69
2024/03/22 00:50:07;;;;;;;30.98;16.67;;;;;;;5.19;100.00;96919.38;1022864;29;20043;-69
2024/03/22 00:50:37;;;;;;;33.10;16.50;;;;;;;5.18;100.00;96913.38;1026392;28;20445;-69
2024/03/22 00:51:08;;;;;;;26.73;15.88;;;;;;;5.18;100.00;96917.78;1026531;28;20030;-68
2024/03/22 00:51:38;;;;;;;31.08;17.05;;;;;;;5.17;100.00;96911.78;1031398;28;20054;-68
2024/03/22 00:52:09;;;;;;;30.52;17.58;;;;;;;5.17;100.00;96916.19;1027427;28;20035;-69
2024/03/22 00:52:39;;;;;;;29.10;16.23;;;;;;;5.14;100.00;96913.97;1023386;29;19922;-68
2024/03/22 00:53:10;;;;;;;34.47;17.90;;;;;;;5.12;100.00;96902.94;1027542;28;20130;-69
2024/03/22 00:53:40;;;;;;;32.00;18.23;;;;;;;5.17;100.00;96913.59;1023605;29;20540;-69
2024/03/22 00:54:11;;;;;;;29.83;18.13;;;;;;;5.14;100.00;96909.56;1027716;28;20146;-69
2024/03/22 00:54:41;;;;;;;29.42;16.98;;;;;;;5.14;100.00;96903.56;1025844;28;20110;-69
2024/03/22 00:55:12;;;;;;;28.02;17.08;;;;;;;5.13;100.00;96915.78;1031510;28;20030;-68
2024/03/22 00:55:42;;;;;;;30.02;18.08;;;;;;;5.12;100.00;96914.16;1027626;28;20101;-69
2024/03/22 00:56:13;;;;;;;30.48;17.45;;;;;;;5.12;100.00;96908.16;1027591;28;20054;-69
2024/03/22 00:56:43;;;;;;;33.38;17.73;;;;;;;5.10;100.00;96910.19;1035072;28;20038;-68
2024/03/22 00:57:14;;;;;;;30.33;18.23;;;;;;;5.09;100.00;96911.16;1027674;28;20596;-68
2024/03/22 00:57:44;;;;;;;34.22;18.75;;;;;;;5.02;100.00;96897.34;1019467;29;20071;-68
2024/03/22 00:58:15;;;;;;;31.75;18.33;;;;;;;5.07;100.00;96906.16;1015185;29;20040;-68
2024/03/22 00:58:45;;;;;;;29.83;18.08;;;;;;;5.07;100.00;96905.38;1024202;28;20078;-68
2024/03/22 00:59:16;;;;;;;35.80;19.13;;;;;;;5.07;100.00;96905.38;1023423;29;20042;-69
2024/03/22 00:59:47;;;;;;;38.50;19.25;;;;;;;5.06;100.00;96901.16;1027554;28;20027;-70
2024/03/22 01:00:17;;;;;;;33.35;19.52;;;;;;;4.97;100.00;96890.16;1023169;29;20798;-69
2024/03/22 01:00:48;;;;;;;33.65;18.70;;;;;;;5.05;100.00;96902.16;1023348;29;20031;-68
2024/03/22 01:01:18;;;;;;;32.72;18.05;;;;;;;5.01;100.00;96896.53;1023790;29;20027;-69
2024/03/22 01:01:49;;;;;;;37.10;19.20;;;;;;;5.00;100.00;96891.53;1023216;29;20027;-67
2024/03/22 01:02:19;;;;;;;32.30;19.08;;;;;;;5.05;100.00;96902.16;1031578;28;20062;-69
2024/03/22 01:02:50;;;;;;;29.75;18.38;;;;;;;5.03;100.00;96896.34;1031382;28;20034;-68
2024/03/22 01:03:21;;;;;;;29.63;17.60;;;;;;;4.97;100.00;96883.13;1023518;29;20089;-69
2024/03/22 01:03:51;;;;;;;34.28;19.55;;;;;;;5.06;100.00;96898.53;1023575;28;20403;-69
2024/03/22 01:04:22;;;;;;;35.72;19.38;;;;;;;5.03;100.00;96896.34;1027438;28;20034;-68
2024/03/22 01:04:52;;;;;;;33.58;19.35;;;;;;;5.05;100.00;96899.56;1027366;28;20034;-69
2024/03/22 01:05:23;;;;;;;33.70;19.10;;;;;;;5.03;100.00;96893.72;1027495;28;20077;-69
2024/03/22 01:05:53;;;;;;;33.50;18.70;;;;;;;5.03;100.00;96899.75;1027540;28;20027;-69
2024/03/22 01:06:25;;;;;;;35.80;20.15;;;;;;;5.02;100.00;96892.94;1023543;29;20385;-68
2024/03/22 01:06:55;;;;;;;32.10;18.70;;;;;;;5.01;100.00;96895.75;1031199;28;20026;-68
2024/03/22 01:07:26;;;;;;;28.77;17.05;;;;;;;5.00;100.00;96892.34;1035533;28;20347;-69
2024/03/22 01:07:56;;;;;;;36.08;20.10;;;;;;;4.94;100.00;96888.72;1027576;28;20118;-69
2024/03/22 01:08:27;;;;;;;33.10;19.48;;;;;;;4.97;100.00;96896.16;1022863;29;20442;-68
2024/03/22 01:08:58;;;;;;;32.33;18.48;;;;;;;4.98;100.00;96891.75;1031099;28;20031;-69
2024/03/22 01:09:28;;;;;;;37.92;20.25;;;;;;;4.97;100.00;96896.16;1023535;28;20325;-69
2024/03/22 01:09:58;;;;;;;34.92;18.90;;;;;;;4.97;100.00;96890.16;1019391;29;20070;-70
2024/03/22 01:10:29;;;;;;;36.30;20.55;;;;;;;4.95;100.00;96887.72;1031243;28;20125;-69
2024/03/22 01:11:00;;;;;;;34.80;19.77;;;;;;;4.93;100.00;96894.94;1031602;28;20106;-69
2024/03/22 01:11:30;;;;;;;33.35;19.42;;;;;;;4.93;100.00;96892.34;1031265;28;20438;-69
2024/03/22 01:12:01;;;;;;;33.88;19.80;;;;;;;4.92;100.00;96895.91;1035848;28;20100;-67
2024/03/22 01:12:31;;;;;;;36.53;19.73;;;;;;;4.92;100.00;96893.31;1027293;28;20459;-70
2024/03/22 01:13:02;;;;;;;37.45;20.25;;;;;;;4.91;100.00;96888.34;1019463;29;20032;-68
2024/03/22 01:13:32;;;;;;;38.92;20.25;;;;;;;4.92;100.00;96893.31;1027507;28;20026;-69
2024/03/22 01:14:03;;;;;;;38.05;19.55;;;;;;;4.92;100.00;96882.91;1029932;28;20094;-68
2024/03/22 01:14:33;;;;;;;37.60;20.10;;;;;;;4.94;100.00;96891.34;1031383;28;20081;-68
2024/03/22 01:15:04;;;;;;;36.80;20.40;;;;;;;4.93;100.00;96892.34;1031622;28;20054;-69
2024/03/22 01:15:35;;;;;;;36.30;20.08;;;;;;;4.90;100.00;96890.13;1032365;28;20121;-69
2024/03/22 01:16:09;;;;;;;38.45;20.33;;;;;;;4.86;100.00;96883.72;1035797;28;20344;-69
2024/03/22 01:16:41;;;;;;;35.42;19.20;;;;;;;4.89;100.00;96887.72;1039575;28;20100;-69
2024/03/22 01:17:11;;;;;;;37.08;20.58;;;;;;;4.87;100.00;96884.53;1035277;28;20852;-69
2024/03/22 01:17:42;;;;;;;37.63;20.70;;;;;;;4.88;100.00;96880.91;1031540;28;20372;-68
2024/03/22 01:18:12;;;;;;;34.55;19.83;;;;;;;4.87;100.00;96885.31;1025771;28;20119;-68
2024/03/22 01:18:43;;;;;;;42.70;19.38;;;;;;;4.85;100.00;96887.31;1025275;28;20031;-69
2024/03/22 01:19:13;;;;;;;33.78;19.77;;;;;;;4.85;100.00;96887.31;1030566;28;20022;-68
2024/03/22 01:19:44;;;;;;;39.60;20.23;;;;;;;4.85;100.00;96884.72;1023257;29;20118;-69
2024/03/22 01:20:14;;;;;;;34.10;19.73;;;;;;;4.83;100.00;96883.31;1027976;28;20054;-70
2024/03/22 01:20:45;;;;;;;32.65;19.63;;;;;;;4.82;100.00;96887.69;1027292;28;20090;-69
2024/03/22 01:21:16;;;;;;;37.58;20.98;;;;;;;4.83;100.00;96884.13;1030817;28;20038;-69
2024/03/22 01:21:46;;;;;;;35.33;19.88;;;;;;;4.83;100.00;96886.72;1023359;29;20090;-69
2024/03/22 01:22:17;;;;;;;33.38;20.33;;;;;;;4.82;100.00;96887.69;1035278;28;20582;-69
2024/03/22 01:22:49;;;;;;;35.17;20.92;;;;;;;4.82;100.00;96877.31;1023405;29;20047;-69
2024/03/22 01:23:19;;;;;;;37.08;20.95;;;;;;;4.82;100.00;96885.09;1023363;29;20652;-69
2024/03/22 01:23:50;;;;;;;40.63;21.20;;;;;;;4.82;100.00;96879.09;1031161;28;20312;-69
2024/03/22 01:24:21;;;;;;;37.17;20.48;;;;;;;4.83;100.00;96883.31;1027400;28;20023;-69
2024/03/22 01:24:51;;;;;;;35.95;20.98;;;;;;;4.81;100.00;96880.91;1027293;28;20262;-68
2024/03/22 01:25:22;;;;;;;34.63;19.42;;;;;;;4.77;100.00;96871.13;1031319;28;20479;-70
2024/03/22 01:25:52;;;;;;;37.70;20.33;;;;;;;4.81;100.00;96880.91;1027083;28;20149;-69
2024/03/22 01:26:23;;;;;;;39.05;20.90;;;;;;;4.78;100.00;96870.09;1031323;28;20058;-69
2024/03/22 01:26:53;;;;;;;43.20;20.95;;;;;;;4.80;100.00;96879.31;1031535;28;20527;-69
2024/03/22 01:27:24;;;;;;;36.78;20.23;;;;;;;4.80;100.00;96879.31;1027275;28;20045;-71
2024/03/22 01:27:55;;;;;;;35.05;20.67;;;;;;;4.77;100.00;96879.72;1027140;28;20066;-70
2024/03/22 01:28:26;;;;;;;38.92;19.35;;;;;;;4.76;100.00;96878.09;1027004;28;20070;-68
2024/03/22 01:28:56;;;;;;;36.80;20.13;;;;;;;4.80;100.00;96884.53;1023273;29;20298;-70
2024/03/22 01:29:30;;;;;;;41.10;20.60;;;;;;;4.78;100.00;96883.91;1019371;28;20082;-69
2024/03/22 01:30:00;;;;;;;39.20;19.80;;;;;;;4.78;100.00;96877.91;1027092;28;20035;-69
2024/03/22 01:30:33;;;;;;;40.33;19.98;;;;;;;4.76;100.00;96878.09;1031276;28;20352;-68
2024/03/22 01:31:03;;;;;;;36.35;19.98;;;;;;;4.76;100.00;96883.28;1031440;28;20042;-68
2024/03/22 01:31:34;;;;;;;36.88;20.55;;;;;;;4.73;100.00;96879.31;1035233;28;20265;-69
2024/03/22 01:32:05;;;;;;;46.38;22.30;;;;;;;4.73;100.00;96881.09;1027283;28;20069;-69
2024/03/22 01:32:36;;;;;;;35.45;20.10;;;;;;;4.69;100.00;96875.50;1027179;28;20074;-69
2024/03/22 01:33:06;;;;;;;38.67;21.35;;;;;;;4.68;100.00;96875.69;1027388;28;20105;-69
2024/03/22 01:33:37;;;;;;;36.78;20.45;;;;;;;4.70;100.00;96879.69;1027325;28;20293;-69
2024/03/22 01:34:07;;;;;;;38.83;21.77;;;;;;;4.70;100.00;96876.31;1034237;28;20133;-68
2024/03/22 01:34:38;;;;;;;38.17;20.73;;;;;;;4.70;100.00;96873.69;1035353;28;20105;-70
2024/03/22 01:35:08;;;;;;;41.10;20.27;;;;;;;4.71;100.00;96877.91;1031576;28;20131;-69
2024/03/22 01:35:39;;;;;;;43.75;22.15;;;;;;;4.69;100.00;96878.09;1023310;29;20042;-68
2024/03/22 01:36:09;;;;;;;37.40;21.42;;;;;;;4.69;100.00;96872.91;1027011;28;20057;-70
2024/03/22 01:36:40;;;;;;;38.55;21.48;;;;;;;4.69;100.00;96872.06;1031382;28;20034;-69
2024/03/22 01:37:10;;;;;;;37.22;21.45;;;;;;;4.69;100.00;96874.69;1023184;29;20126;-69
2024/03/22 01:37:41;;;;;;;38.58;21.35;;;;;;;4.69;100.00;96869.47;1028185;28;20073;-70
2024/03/22 01:38:13;;;;;;;38.25;20.85;;;;;;;4.69;100.00;96882.47;1018445;29;20026;-68
2024/03/22 01:38:43;;;;;;;40.67;21.02;;;;;;;4.67;100.00;96872.28;1025908;28;20027;-69
2024/03/22 01:39:15;;;;;;;38.13;19.98;;;;;;;4.67;100.00;96879.28;1031342;28;20312;-70
2024/03/22 01:39:46;;;;;;;40.42;20.52;;;;;;;4.64;100.00;96875.28;1023245;29;20122;-70
2024/03/22 01:40:16;;;;;;;37.33;20.83;;;;;;;4.63;100.00;96875.50;1023082;29;20656;-69
2024/03/22 01:40:47;;;;;;;39.53;22.83;;;;;;;4.66;100.00;96883.69;1027245;28;20062;-70
2024/03/22 01:41:17;;;;;;;39.20;21.77;;;;;;;4.66;100.00;96875.06;1031289;28;20453;-69
2024/03/22 01:41:48;;;;;;;41.13;21.75;;;;;;;4.69;100.00;96878.09;1027294;28;20023;-69
2024/03/22 01:42:19;;;;;;;36.88;22.23;;;;;;;4.69;100.00;96878.09;1019396;29;20044;-69
2024/03/22 01:42:53;;;;;;;40.85;21.58;;;;;;;4.71;100.00;96880.50;1021854;29;20070;-69
2024/03/22 01:43:23;;;;;;;39.67;21.25;;;;;;;4.69;100.00;96872.91;1031460;28;20479;-69
2024/03/22 01:43:54;;;;;;;37.90;21.45;;;;;;;4.68;100.00;96875.69;1023138;28;20350;-69
2024/03/22 01:44:31;;;;;;;44.20;22.15;;;;;;;4.66;100.00;96875.91;1027050;28;20373;-69
2024/03/22 01:45:03;;;;;;;41.72;22.35;;;;;;;4.65;100.00;96873.47;1027485;28;20021;-68
2024/03/22 01:45:33;;;;;;;36.53;21.48;;;;;;;4.64;100.00;96879.69;1027343;28;20258;-70
2024/03/22 01:46:04;;;;;;;38.70;21.08;;;;;;;4.65;100.00;96876.06;1027254;28;20266;-69
2024/03/22 01:46:35;;;;;;;38.50;21.40;;;;;;;4.65;100.00;96873.47;1027117;28;20034;-70
2024/03/22 01:47:05;;;;;;;37.08;21.60;;;;;;;4.64;100.00;96870.09;1027275;28;20504;-69
2024/03/22 01:47:36;;;;;;;40.03;21.92;;;;;;;4.63;100.00;96870.28;1023521;29;20035;-68
2024/03/22 01:48:07;;;;;;;39.67;21.52;;;;;;;4.61;100.00;96867.06;1030195;28;20056;-69
2024/03/22 01:48:37;;;;;;;37.90;22.08;;;;;;;4.58;100.00;96860.47;1030577;28;20053;-70
2024/03/22 01:49:09;;;;;;;42.95;21.83;;;;;;;4.60;100.00;96862.88;1031544;28;20261;-69
2024/03/22 01:49:39;;;;;;;38.58;22.00;;;;;;;4.59;100.00;96871.66;1026046;28;20531;-69
2024/03/22 01:50:10;;;;;;;45.67;22.13;;;;;;;4.58;100.00;96868.25;1028395;28;20278;-70
2024/03/22 01:50:40;;;;;;;40.90;22.45;;;;;;;4.60;100.00;96863.69;1028144;28;20038;-70
2024/03/22 01:51:11;;;;;;;40.65;21.92;;;;;;;4.59;100.00;96864.66;1021636;29;20026;-69
2024/03/22 01:51:42;;;;;;;40.63;22.17;;;;;;;4.59;100.00;96872.44;1024210;29;20054;-69
2024/03/22 01:52:12;;;;;;;41.03;22.08;;;;;;;4.60;100.00;96862.88;1024146;29;20030;-69
2024/03/22 01:52:43;;;;;;;45.40;22.33;;;;;;;4.60;100.00;96861.06;1027568;28;20286;-69
2024/03/22 01:53:13;;;;;;;43.90;22.83;;;;;;;4.60;100.00;96868.88;1022651;29;20066;-69
2024/03/22 01:53:44;;;;;;;41.75;22.55;;;;;;;4.59;100.00;96866.47;1027290;28;20113;-70
2024/03/22 01:54:15;;;;;;;39.58;22.05;;;;;;;4.56;100.00;96861.66;1027449;28;20364;-69
2024/03/22 01:54:45;;;;;;;38.30;21.20;;;;;;;4.58;100.00;96867.47;1030937;28;20026;-70
2024/03/22 01:55:16;;;;;;;42.35;22.52;;;;;;;4.57;100.00;96868.47;1027423;28;20277;-69
2024/03/22 01:55:47;;;;;;;42.63;22.05;;;;;;;4.55;100.00;96865.25;1019556;29;20090;-69
2024/03/22 01:56:17;;;;;;;42.10;22.05;;;;;;;4.57;100.00;96868.47;1019131;29;20032;-69
2024/03/22 01:56:48;;;;;;;41.20;22.80;;;;;;;4.52;100.00;96860.44;1022995;29;20414;-70
2024/03/22 01:57:18;;;;;;;38.03;22.25;;;;;;;4.45;100.00;96856.03;1035473;28;20037;-69
2024/03/22 01:57:49;;;;;;;40.92;23.08;;;;;;;4.47;100.00;96861.84;1027062;28;20062;-70
2024/03/22 01:58:19;;;;;;;37.33;20.95;;;;;;;4.48;100.00;96860.84;1026931;28;20042;-70
2024/03/22 01:58:50;;;;;;;38.58;22.33;;;;;;;4.47;100.00;96859.25;1034492;28;20025;-68
2024/03/22 01:59:21;;;;;;;39.28;21.75;;;;;;;4.48;100.00;96858.22;1027168;28;20038;-70
2024/03/22 01:59:51;;;;;;;40.13;22.27;;;;;;;4.53;100.00;96859.44;1035229;28;20025;-69
2024/03/22 02:00:22;;;;;;;41.33;23.02;;;;;;;4.54;100.00;96868.84;1027139;28;20122;-70
2024/03/22 02:00:52;;;;;;;40.53;22.17;;;;;;;4.52;100.00;96860.44;1035279;28;20033;-69
2024/03/22 02:01:23;;;;;;;42.35;22.38;;;;;;;4.54;100.00;96858.47;1031312;28;20038;-69
2024/03/22 02:01:54;;;;;;;40.45;22.52;;;;;;;4.53;100.00;96856.84;1030481;28;20357;-69
2024/03/22 02:02:24;;;;;;;40.92;23.17;;;;;;;4.52;100.00;96863.84;1026849;28;20030;-69
2024/03/22 02:02:55;;;;;;;43.65;23.17;;;;;;;4.51;100.00;96859.66;1035276;28;20068;-69
2024/03/22 02:03:25;;;;;;;45.97;23.33;;;;;;;4.49;100.00;96854.66;1023157;29;20031;-70
2024/03/22 02:03:56;;;;;;;44.13;22.95;;;;;;;4.51;100.00;96856.25;1031846;28;20444;-69
2024/03/22 02:04:26;;;;;;;42.25;22.65;;;;;;;4.52;100.00;96855.25;1027327;28;20579;-69
2024/03/22 02:04:57;;;;;;;43.75;23.10;;;;;;;4.50;100.00;96858.06;1023145;29;20066;-69
2024/03/22 02:05:27;;;;;;;39.05;21.42;;;;;;;4.50;100.00;96852.84;1031126;28;20459;-69
2024/03/22 02:05:58;;;;;;;44.30;22.52;;;;;;;4.46;100.00;96852.44;1031144;28;20513;-69
2024/03/22 02:06:28;;;;;;;40.75;22.83;;;;;;;4.45;100.00;96850.81;1031565;28;20121;-69
2024/03/22 02:06:59;;;;;;;41.80;22.75;;;;;;;4.46;100.00;96851.63;1020061;28;20032;-69
2024/03/22 02:07:30;;;;;;;46.05;23.02;;;;;;;4.44;100.00;96851.84;1023239;29;20514;-69
2024/03/22 02:08:00;;;;;;;40.45;22.42;;;;;;;4.43;100.00;96842.44;1031461;28;20030;-68
2024/03/22 02:08:31;;;;;;;48.70;24.15;;;;;;;4.43;100.00;96841.66;1038683;28;20144;-69
2024/03/22 02:09:01;;;;;;;42.65;22.75;;;;;;;4.45;100.00;96845.63;1030109;28;20026;-69
2024/03/22 02:09:32;;;;;;;38.85;22.88;;;;;;;4.43;100.00;96842.44;1027430;28;20035;-69
2024/03/22 02:10:02;;;;;;;43.08;22.83;;;;;;;4.44;100.00;96846.63;1023179;29;20042;-69
2024/03/22 02:10:33;;;;;;;49.88;25.13;;;;;;;4.46;100.00;96846.44;1031184;28;20455;-69
2024/03/22 02:11:03;;;;;;;40.95;22.98;;;;;;;4.46;100.00;96847.25;1031261;28;20058;-69
2024/03/22 02:11:34;;;;;;;43.65;22.65;;;;;;;4.30;100.00;96816.44;1035068;28;20085;-70
2024/03/22 02:12:04;;;;;;;47.25;23.55;;;;;;;4.44;100.00;96838.84;1027212;28;20027;-69
2024/03/22 02:12:35;;;;;;;45.00;22.83;;;;;;;4.44;100.00;96841.44;1031079;28;20030;-69
2024/03/22 02:13:06;;;;;;;48.92;22.55;;;;;;;4.43;100.00;96837.25;1031122;28;20511;-69
2024/03/22 02:13:36;;;;;;;42.88;22.35;;;;;;;4.44;100.00;96840.66;1031454;28;20029;-68
2024/03/22 02:14:07;;;;;;;45.97;23.80;;;;;;;4.44;100.00;96836.25;1031044;28;20022;-69
2024/03/22 02:14:37;;;;;;;42.70;22.20;;;;;;;4.42;100.00;96835.63;1035489;28;20074;-69
2024/03/22 02:15:08;;;;;;;50.10;23.20;;;;;;;4.40;100.00;96837.63;1027248;28;20504;-68
2024/03/22 02:15:38;;;;;;;42.63;22.38;;;;;;;4.40;100.00;96842.03;1030964;28;20030;-68
2024/03/22 02:16:09;;;;;;;41.10;23.30;;;;;;;4.44;100.00;96843.25;1027440;28;20050;-70
2024/03/22 02:16:40;;;;;;;42.92;22.85;;;;;;;4.43;100.00;96842.44;1019258;29;20039;-69
2024/03/22 02:17:10;;;;;;;47.90;22.88;;;;;;;4.41;100.00;96841.84;1031162;28;20018;-69
2024/03/22 02:17:41;;;;;;;39.08;21.90;;;;;;;4.40;100.00;96842.84;1035312;28;20750;-68
2024/03/22 02:18:11;;;;;;;38.22;21.58;;;;;;;4.40;100.00;96837.63;1023038;29;20023;-69
2024/03/22 02:18:42;;;;;;;42.17;21.80;;;;;;;4.41;100.00;96838.44;1022737;29;20038;-68
2024/03/22 02:19:12;;;;;;;42.22;22.15;;;;;;;4.39;100.00;96840.41;1031058;28;20514;-68
2024/03/22 02:19:43;;;;;;;41.78;23.00;;;;;;;4.38;100.00;96831.03;1031313;28;20113;-68
2024/03/22 02:20:13;;;;;;;40.58;23.05;;;;;;;4.38;100.00;96844.81;1027263;28;20128;-68
2024/03/22 02:20:44;;;;;;;43.38;22.65;;;;;;;4.39;100.00;96843.00;1017495;29;20477;-68
2024/03/22 02:21:14;;;;;;;38.78;22.98;;;;;;;4.34;100.00;96833.22;1027129;28;20062;-68